Time;durP1;ratioP1;P1;durP2;ratioP2;P2;SDS_P1;SDS_P2;PMS_P1;PMS_P2;Temp;Humidity;BMP_temperature;BMP_pressure;BME280_temperature;BME280_humidity;BME280_pressure;Samples;Min_cycle;Max_cycle;Signal;HPM_P1;HPM_P2
2022/06/17 00:01:26;;;;;;;11.63;3.13;;;12.50;99.90;12.30;98472.00;;;;4981551;28;86887;-59
2022/06/17 00:03:52;;;;;;;13.63;3.50;;;12.50;99.90;12.30;98475.00;;;;4981421;28;87646;-59
2022/06/17 00:06:24;;;;;;;8.07;2.92;;;12.50;99.90;12.20;98463.00;;;;4985731;28;87375;-59
2022/06/17 00:08:53;;;;;;;8.35;2.70;;;12.40;99.90;12.20;98460.00;;;;4970779;28;90370;-59
2022/06/17 00:11:26;;;;;;;8.13;2.88;;;12.40;99.90;12.10;98465.00;;;;4982722;28;86998;-58
2022/06/17 00:13:52;;;;;;;7.28;3.00;;;12.40;99.90;12.10;98458.00;;;;4965028;28;87723;-59
2022/06/17 00:16:21;;;;;;;6.82;3.20;;;12.40;99.90;12.10;98463.00;;;;4982059;28;87331;-59
2022/06/17 00:18:48;;;;;;;6.60;3.13;;;12.30;99.90;12.10;98455.00;;;;4982484;28;86988;-59
2022/06/17 00:21:26;;;;;;;9.48;3.40;;;12.30;99.90;12.10;98463.00;;;;4982005;28;86987;-59
2022/06/17 00:23:53;;;;;;;9.07;3.15;;;12.30;99.90;12.00;98464.00;;;;4968117;28;87723;-59
2022/06/17 00:26:19;;;;;;;7.22;3.10;;;12.30;99.90;12.00;98468.00;;;;4979572;28;87236;-59
2022/06/17 00:28:47;;;;;;;7.45;3.10;;;12.20;99.90;11.90;98475.00;;;;4982087;28;86962;-59
2022/06/17 00:31:15;;;;;;;9.18;3.80;;;12.10;99.90;11.90;98471.00;;;;4982144;28;86926;-59
2022/06/17 00:33:42;;;;;;;10.77;3.17;;;12.10;99.90;11.80;98478.00;;;;4981390;28;88410;-59
2022/06/17 00:36:17;;;;;;;7.18;2.78;;;12.00;99.90;11.70;98479.00;;;;4981114;28;89186;-59
2022/06/17 00:38:45;;;;;;;9.52;2.95;;;11.90;99.90;11.80;98480.00;;;;4964535;28;87580;-59
2022/06/17 00:41:36;;;;;;;10.57;3.08;;;11.90;99.90;11.70;98476.00;;;;4980905;28;87170;-59
2022/06/17 00:44:38;;;;;;;10.48;3.42;;;11.90;99.90;11.60;98482.00;;;;4964255;28;87752;-59
2022/06/17 00:47:48;;;;;;;6.47;2.80;;;11.70;99.90;11.50;98477.00;;;;4947351;28;88017;-59
2022/06/17 00:50:33;;;;;;;6.72;2.72;;;11.70;99.90;11.50;98476.00;;;;4901438;28;87272;-58
2022/06/17 00:53:17;;;;;;;5.72;3.13;;;11.70;99.90;11.40;98479.00;;;;4949732;28;87208;-59
2022/06/17 00:56:09;;;;;;;7.03;3.30;;;11.60;99.90;11.40;98484.00;;;;4961951;28;87904;-58
2022/06/17 00:59:09;;;;;;;4.53;2.97;;;11.60;99.90;11.40;98488.00;;;;4963887;28;87422;-58
2022/06/17 01:01:59;;;;;;;6.82;3.42;;;11.60;99.90;11.50;98481.00;;;;4981269;28;87914;-58
2022/06/17 01:04:45;;;;;;;6.80;3.08;;;11.70;99.90;11.60;98490.00;;;;4948898;28;87102;-58
2022/06/17 01:07:17;;;;;;;11.35;3.38;;;11.80;99.90;11.60;98486.00;;;;4964361;28;87433;-58
2022/06/17 01:09:58;;;;;;;7.68;3.05;;;11.80;99.90;11.70;98487.00;;;;4966117;28;87448;-58
2022/06/17 01:12:34;;;;;;;5.40;2.90;;;11.90;99.90;11.90;98486.00;;;;4965037;28;87168;-58
2022/06/17 01:15:01;;;;;;;8.10;3.13;;;12.10;99.90;12.20;98482.00;;;;4963788;28;87059;-58
2022/06/17 01:17:32;;;;;;;8.48;3.30;;;12.30;99.90;12.40;98485.00;;;;4948592;28;87027;-59
2022/06/17 01:20:04;;;;;;;5.65;2.90;;;12.50;99.90;12.50;98478.00;;;;4948629;28;87435;-59
2022/06/17 01:22:42;;;;;;;8.23;2.88;;;12.60;99.90;12.70;98484.00;;;;4964501;28;87154;-58
2022/06/17 01:25:37;;;;;;;7.65;2.90;;;12.80;99.90;12.80;98473.00;;;;4947998;28;87491;-59
2022/06/17 01:28:12;;;;;;;6.43;3.03;;;12.80;99.90;12.90;98472.00;;;;4961514;28;90107;-59
2022/06/17 01:30:42;;;;;;;7.25;2.72;;;12.90;99.90;12.80;98467.00;;;;4980940;28;88248;-59
2022/06/17 01:33:13;;;;;;;7.28;2.90;;;12.90;99.90;12.90;98464.00;;;;4948673;28;86861;-59
2022/06/17 01:35:59;;;;;;;6.57;3.35;;;12.90;99.90;12.80;98469.00;;;;4961202;28;87037;-59
2022/06/17 01:38:28;;;;;;;8.70;3.00;;;12.90;99.90;12.90;98475.00;;;;4981197;28;87661;-59
2022/06/17 01:40:59;;;;;;;7.18;2.70;;;12.90;99.90;12.90;98477.00;;;;4964006;28;87454;-58
2022/06/17 01:43:43;;;;;;;5.55;2.95;;;12.90;99.90;12.90;98477.00;;;;4997350;28;87368;-59
2022/06/17 01:46:19;;;;;;;8.55;3.00;;;12.90;99.90;12.80;98482.00;;;;4954717;28;86337;-59
2022/06/17 01:49:02;;;;;;;7.65;3.08;;;12.90;99.90;12.80;98477.00;;;;4982722;28;87951;-59
2022/06/17 01:51:34;;;;;;;9.63;3.85;;;12.80;99.90;12.70;98498.00;;;;4964645;28;87297;-59
2022/06/17 01:54:07;;;;;;;12.85;4.18;;;12.80;99.90;13.00;98484.00;;;;4965533;28;87973;-58
2022/06/17 01:56:38;;;;;;;9.98;3.70;;;13.00;99.90;13.90;98486.00;;;;4962158;28;87208;-59
2022/06/17 01:59:39;;;;;;;9.57;3.10;;;13.70;99.90;14.90;98487.00;;;;4988551;28;88061;-59
2022/06/17 02:02:08;;;;;;;4.63;2.70;;;14.50;99.90;15.50;98485.00;;;;4961159;28;88642;-59
2022/06/17 02:04:40;;;;;;;6.18;2.55;;;15.20;99.90;16.20;98495.00;;;;4967852;28;87027;-59
2022/06/17 02:07:32;;;;;;;5.38;2.13;;;15.80;99.90;16.90;98486.00;;;;4951085;28;87136;-59
2022/06/17 02:09:58;;;;;;;4.53;1.83;;;16.40;99.90;17.40;98489.00;;;;4941275;28;88506;-59
2022/06/17 02:12:27;;;;;;;7.50;2.00;;;16.90;99.90;17.80;98492.00;;;;4983734;28;87257;-59
2022/06/17 02:15:00;;;;;;;5.53;2.30;;;17.30;99.90;18.20;98492.00;;;;4952279;28;87176;-59
2022/06/17 02:17:56;;;;;;;5.50;2.20;;;17.70;99.90;19.20;98493.00;;;;4924189;28;87591;-59
2022/06/17 02:20:33;;;;;;;6.95;2.53;;;18.60;99.90;20.00;98482.00;;;;4982381;28;89153;-59
2022/06/17 02:23:00;;;;;;;10.38;3.00;;;19.50;99.90;20.80;98485.00;;;;4982754;28;88501;-59
2022/06/17 02:25:31;;;;;;;4.32;2.28;;;20.10;99.90;21.20;98490.00;;;;4967392;28;87082;-58
2022/06/17 02:28:00;;;;;;;8.95;2.40;;;20.50;99.90;21.60;98489.00;;;;4966808;28;87414;-59
2022/06/17 02:30:28;;;;;;;7.07;1.90;;;20.80;99.90;22.00;98494.00;;;;5012980;28;88143;-59
2022/06/17 02:33:01;;;;;;;7.10;2.55;;;21.20;99.90;22.40;98489.00;;;;4983375;28;87980;-59
2022/06/17 02:36:10;;;;;;;5.70;1.87;;;21.60;99.90;22.60;98483.00;;;;4984515;28;87107;-59
2022/06/17 02:38:38;;;;;;;6.55;2.10;;;21.80;99.90;22.30;98492.00;;;;4983877;28;86350;-59
2022/06/17 02:41:11;;;;;;;10.43;1.90;;;21.50;99.90;22.00;98483.00;;;;4982698;28;87955;-59
2022/06/17 02:43:47;;;;;;;7.63;2.15;;;21.20;99.90;22.40;98478.00;;;;4966389;28;88475;-59
2022/06/17 02:46:26;;;;;;;9.98;2.58;;;21.70;99.90;22.80;98482.00;;;;4949658;28;87986;-59
2022/06/17 02:49:04;;;;;;;6.32;2.17;;;21.90;99.90;23.10;98483.00;;;;4965203;28;87025;-59
2022/06/17 02:51:38;;;;;;;5.10;2.30;;;22.20;99.90;23.20;98488.00;;;;4962297;28;87738;-59
2022/06/17 02:54:07;;;;;;;7.72;2.30;;;22.30;99.90;23.10;98484.00;;;;4985516;28;89076;-59
2022/06/17 02:56:35;;;;;;;6.15;2.20;;;22.30;99.90;22.40;98504.00;;;;4966225;28;86994;-59
2022/06/17 02:59:32;;;;;;;6.70;2.13;;;21.50;99.90;21.40;98502.00;;;;4957775;28;87199;-59
2022/06/17 03:02:05;;;;;;;8.23;2.30;;;20.80;99.90;20.40;98496.00;;;;4947314;28;88826;-59
2022/06/17 03:04:44;;;;;;;11.65;2.75;;;20.00;99.90;19.80;98502.00;;;;4951167;28;88573;-59
2022/06/17 03:07:16;;;;;;;11.30;2.50;;;19.50;99.90;19.40;98486.00;;;;4963226;28;87162;-59
2022/06/17 03:09:43;;;;;;;4.53;2.08;;;19.10;99.90;19.50;98502.00;;;;4966245;28;86995;-59
2022/06/17 03:12:18;;;;;;;7.20;2.55;;;19.00;99.90;19.80;98499.00;;;;4969861;28;88974;-59
2022/06/17 03:14:58;;;;;;;6.38;2.25;;;19.20;99.90;20.00;98495.00;;;;4959251;28;88502;-59
2022/06/17 03:17:25;;;;;;;7.63;2.73;;;19.40;99.90;20.60;98495.00;;;;4965488;28;87282;-59
2022/06/17 03:19:56;;;;;;;7.00;2.60;;;20.00;99.90;21.20;98500.00;;;;4980198;28;87312;-59
2022/06/17 03:22:25;;;;;;;6.53;2.58;;;20.50;99.90;21.60;98493.00;;;;4949782;28;87594;-60
2022/06/17 03:25:09;;;;;;;8.45;2.17;;;20.80;99.90;21.40;98502.00;;;;4965862;28;87253;-59
2022/06/17 03:27:57;;;;;;;5.88;2.42;;;20.70;99.90;21.00;98505.00;;;;4957946;28;87370;-59
2022/06/17 03:30:34;;;;;;;6.78;1.95;;;20.30;99.90;20.70;98482.00;;;;4985958;28;86535;-59
2022/06/17 03:33:37;;;;;;;6.70;2.25;;;20.20;99.90;20.30;98492.00;;;;4949556;28;90117;-59
2022/06/17 03:36:16;;;;;;;8.52;2.08;;;20.00;99.90;20.50;98499.00;;;;4950879;28;89625;-59
2022/06/17 03:38:49;;;;;;;7.05;2.60;;;19.90;99.90;20.40;98497.00;;;;4962617;28;87970;-59
2022/06/17 03:41:33;;;;;;;5.50;2.10;;;20.00;99.90;20.40;98501.00;;;;4965615;28;86908;-59
2022/06/17 03:44:13;;;;;;;5.88;2.03;;;19.80;99.90;20.40;98491.00;;;;4965654;28;88311;-59
2022/06/17 03:46:49;;;;;;;5.78;1.88;;;19.90;99.90;20.40;98489.00;;;;4964973;28;88226;-59
2022/06/17 03:49:30;;;;;;;6.40;2.03;;;19.80;99.90;20.50;98488.00;;;;4961530;28;87630;-59
2022/06/17 03:52:15;;;;;;;5.87;2.10;;;20.10;99.90;20.60;98491.00;;;;4946026;28;87352;-59
2022/06/17 03:54:41;;;;;;;5.10;2.20;;;20.20;99.90;20.80;98489.00;;;;4943999;28;88659;-59
2022/06/17 03:57:10;;;;;;;6.65;2.00;;;20.30;99.90;21.20;98498.00;;;;4965449;28;88728;-59
2022/06/17 03:59:38;;;;;;;6.03;1.73;;;20.60;99.90;21.50;98503.00;;;;4966608;28;87808;-59
2022/06/17 04:02:13;;;;;;;11.68;2.15;;;20.80;99.90;21.60;98503.00;;;;4960866;28;87208;-59
2022/06/17 04:04:45;;;;;;;7.80;2.55;;;20.90;99.90;21.80;98502.00;;;;4964617;28;88843;-59
2022/06/17 04:07:13;;;;;;;7.88;1.90;;;21.00;99.90;21.50;98494.00;;;;4948790;28;88938;-59
2022/06/17 04:09:46;;;;;;;7.63;1.95;;;20.80;99.90;21.60;98500.00;;;;4964302;28;87178;-59
2022/06/17 04:12:14;;;;;;;7.43;2.38;;;20.90;99.90;21.30;98495.00;;;;4965024;28;87073;-59
2022/06/17 04:15:52;;;;;;;3.40;1.90;;;20.60;99.90;21.20;98500.00;;;;4982190;28;87471;-59
2022/06/17 04:18:18;;;;;;;8.48;2.42;;;20.90;99.90;21.40;98500.00;;;;4969119;28;87769;-59
2022/06/17 04:20:55;;;;;;;6.63;1.70;;;20.80;99.90;21.60;98492.00;;;;4965422;28;87015;-59
2022/06/17 04:23:28;;;;;;;6.57;1.83;;;20.80;99.90;21.40;98497.00;;;;4969638;28;86515;-59
2022/06/17 04:26:19;;;;;;;3.40;2.07;;;20.70;99.90;21.50;98493.00;;;;4930516;28;88736;-59
2022/06/17 04:29:02;;;;;;;10.52;2.58;;;21.00;99.90;21.30;98495.00;;;;4963431;28;87353;-59
2022/06/17 04:31:34;;;;;;;7.93;2.25;;;20.70;99.90;21.10;98495.00;;;;4964619;28;88367;-59
2022/06/17 04:34:18;;;;;;;6.32;2.40;;;20.60;99.90;21.10;98496.00;;;;4964923;28;87016;-59
2022/06/17 04:36:59;;;;;;;3.35;1.80;;;20.60;99.90;21.40;98492.00;;;;4964593;28;87709;-59
2022/06/17 04:39:54;;;;;;;7.68;1.98;;;20.70;99.90;21.30;98484.00;;;;4964660;28;87385;-59
2022/06/17 04:42:35;;;;;;;5.88;2.03;;;20.70;99.90;21.80;98497.00;;;;4981825;28;87439;-60
2022/06/17 04:45:03;;;;;;;3.80;2.33;;;21.10;99.90;22.30;98494.00;;;;4964587;28;86916;-60
2022/06/17 04:47:33;;;;;;;7.70;2.00;;;21.40;99.90;22.10;98496.00;;;;4963535;28;89694;-60
2022/06/17 04:50:12;;;;;;;9.52;2.03;;;21.40;99.90;22.40;98482.00;;;;4948504;28;87215;-60
2022/06/17 04:52:48;;;;;;;9.55;1.77;;;21.70;99.90;23.00;98485.00;;;;4951351;28;86978;-60
2022/06/17 04:55:39;;;;;;;;;;;22.10;99.90;23.20;98493.00;;;;4981813;28;86994;-60
2022/06/17 04:58:13;;;;;;;3.08;1.70;;;22.30;99.90;23.80;98492.00;;;;4964723;28;88474;-60
2022/06/17 05:00:50;;;;;;;5.75;1.88;;;23.00;99.90;23.80;98485.00;;;;4963765;28;88942;-60
2022/06/17 05:03:28;;;;;;;2.88;1.50;;;22.90;99.90;24.10;98490.00;;;;4964274;28;87121;-60
2022/06/17 05:06:10;;;;;;;5.15;1.65;;;23.20;99.90;23.80;98492.00;;;;4946046;28;87112;-60
2022/06/17 05:08:50;;;;;;;5.35;1.83;;;22.90;99.90;23.60;98501.00;;;;4963962;28;87768;-60
2022/06/17 05:11:28;;;;;;;;;;;22.70;99.90;23.40;98493.00;;;;4964255;28;88539;-60
2022/06/17 05:14:09;;;;;;;4.22;1.40;;;22.50;99.90;23.90;98496.00;;;;4964428;28;87108;-60
2022/06/17 05:16:35;;;;;;;4.00;1.50;;;22.90;99.90;23.90;98485.00;;;;4964351;28;86256;-60
2022/06/17 05:19:01;;;;;;;3.15;1.35;;;23.00;99.90;24.10;98495.00;;;;4963614;28;88828;-60
2022/06/17 05:21:28;;;;;;;3.78;1.42;;;23.20;99.90;24.00;98499.00;;;;4963026;28;88361;-60
2022/06/17 05:24:28;;;;;;;2.97;1.10;;;23.10;99.90;24.30;98487.00;;;;4952988;28;88233;-60
2022/06/17 05:26:54;;;;;;;5.72;1.23;;;23.40;99.90;24.50;98490.00;;;;4963811;28;87124;-60
2022/06/17 05:29:20;;;;;;;2.35;1.27;;;23.60;99.90;23.80;98489.00;;;;4964067;28;86872;-60
2022/06/17 05:31:53;;;;;;;2.03;1.20;;;23.10;99.90;24.10;98479.00;;;;4963775;28;87248;-59
2022/06/17 05:34:24;;;;;;;;;;;23.30;99.90;24.80;98478.00;;;;4980857;28;87127;-60
2022/06/17 05:36:52;;;;;;;5.07;1.30;;;24.00;99.90;25.00;98484.00;;;;4964100;28;87639;-60
2022/06/17 05:39:19;;;;;;;5.93;1.52;;;24.20;99.90;25.00;98475.00;;;;4980020;28;86963;-58
2022/06/17 05:41:45;;;;;;;4.05;1.30;;;24.20;99.90;24.80;98484.00;;;;4963133;28;87514;-58
2022/06/17 05:44:12;;;;;;;5.85;1.50;;;24.10;99.90;24.90;98482.00;;;;4963385;28;86990;-58
2022/06/17 05:46:43;;;;;;;3.42;0.90;;;24.00;99.90;24.60;98488.00;;;;4963221;28;86995;-60
2022/06/17 05:49:18;;;;;;;2.55;0.70;;;24.00;99.90;24.60;98494.00;;;;4978220;28;89046;-59
2022/06/17 05:51:58;;;;;;;3.35;1.10;;;23.90;99.90;24.80;98484.00;;;;4963932;28;88726;-58
2022/06/17 05:54:46;;;;;;;2.72;1.05;;;24.00;99.90;24.40;98485.00;;;;4960311;28;87089;-59
2022/06/17 05:57:20;;;;;;;4.05;1.00;;;23.60;99.90;23.80;98484.00;;;;4963261;28;87086;-59
2022/06/17 05:59:47;;;;;;;4.53;1.00;;;23.00;99.90;23.40;98480.00;;;;4962109;28;87959;-59
2022/06/17 06:02:16;;;;;;;5.32;1.10;;;22.80;99.90;22.70;98477.00;;;;4958398;28;88622;-59
2022/06/17 06:05:04;;;;;;;4.38;1.05;;;22.20;99.90;22.60;98472.00;;;;4975678;28;87053;-59
2022/06/17 06:07:33;;;;;;;4.70;1.20;;;22.10;99.90;23.20;98475.00;;;;4963858;28;86265;-59
2022/06/17 06:10:20;;;;;;;3.55;1.30;;;22.50;99.90;23.60;98470.00;;;;4979686;28;87396;-58
2022/06/17 06:13:05;;;;;;;4.78;1.27;;;22.70;99.90;23.40;98468.00;;;;4967366;28;87964;-58
2022/06/17 06:15:42;;;;;;;2.55;0.90;;;22.70;99.90;23.00;98472.00;;;;4970978;28;87917;-59
2022/06/17 06:18:34;;;;;;;3.55;1.20;;;22.30;99.90;23.20;98463.00;;;;4980707;28;86961;-60
2022/06/17 06:21:06;;;;;;;3.90;1.27;;;22.60;99.90;23.30;98475.00;;;;4963062;28;87729;-60
2022/06/17 06:23:38;;;;;;;5.00;0.90;;;22.60;99.90;23.30;98460.00;;;;4962803;28;88051;-60
2022/06/17 06:26:08;;;;;;;3.13;1.05;;;22.60;99.90;23.40;98458.00;;;;4943573;28;86989;-60
2022/06/17 06:28:35;;;;;;;5.55;1.17;;;22.60;99.90;23.20;98468.00;;;;4977107;28;87267;-60
2022/06/17 06:31:33;;;;;;;1.55;0.80;;;22.50;99.90;22.90;98471.00;;;;4971080;28;88061;-60
2022/06/17 06:34:05;;;;;;;2.25;1.08;;;22.30;99.90;22.20;98463.00;;;;4965389;28;89406;-62
2022/06/17 06:36:39;;;;;;;1.70;0.98;;;21.80;99.90;21.90;98460.00;;;;4949776;28;87379;-58
2022/06/17 06:39:05;;;;;;;4.57;1.55;;;21.60;99.90;21.60;98462.00;;;;4981973;28;86946;-58
2022/06/17 06:41:31;;;;;;;5.78;1.23;;;21.40;99.90;21.50;98461.00;;;;4964837;28;87888;-58
2022/06/17 06:43:58;;;;;;;2.30;1.20;;;21.40;99.90;21.40;98461.00;;;;4965360;28;88589;-58
2022/06/17 06:46:44;;;;;;;3.83;1.40;;;21.20;99.90;21.00;98461.00;;;;4982945;28;87431;-60
2022/06/17 06:49:22;;;;;;;2.65;1.10;;;20.90;99.90;21.00;98462.00;;;;4975174;28;87037;-59
2022/06/17 06:51:48;;;;;;;6.22;1.52;;;21.00;99.90;20.70;98456.00;;;;4965324;28;87100;-60
2022/06/17 06:54:15;;;;;;;3.67;1.10;;;20.70;99.90;20.80;98455.00;;;;4983396;28;87468;-60
2022/06/17 06:56:41;;;;;;;5.95;1.38;;;20.80;99.90;20.80;98450.00;;;;4966554;28;86956;-60
2022/06/17 06:59:11;;;;;;;5.57;1.10;;;20.70;99.90;20.80;98451.00;;;;4966097;28;86379;-59
2022/06/17 07:01:38;;;;;;;2.58;1.20;;;20.80;99.90;20.90;98458.00;;;;4965054;28;89088;-58
2022/06/17 07:04:04;;;;;;;1.20;1.00;;;20.80;99.90;21.00;98450.00;;;;4965596;28;87402;-58
2022/06/17 07:06:35;;;;;;;8.15;1.45;;;20.90;99.90;21.20;98451.00;;;;4965738;28;88387;-59
2022/06/17 07:09:01;;;;;;;2.05;1.15;;;21.10;99.90;21.30;98448.00;;;;4965807;28;87028;-59
2022/06/17 07:11:27;;;;;;;5.47;1.17;;;21.20;99.90;21.40;98444.00;;;;4982986;28;86934;-59
2022/06/17 07:13:53;;;;;;;3.70;1.13;;;21.30;99.90;21.30;98449.00;;;;4982324;28;88442;-59
2022/06/17 07:16:19;;;;;;;3.95;1.20;;;21.20;99.90;21.10;98438.00;;;;4982995;28;86936;-59
2022/06/17 07:18:45;;;;;;;3.03;1.20;;;21.00;99.90;21.20;98440.00;;;;4978933;28;87769;-59
2022/06/17 07:21:14;;;;;;;2.35;0.98;;;21.00;99.90;21.00;98445.00;;;;4982713;28;87501;-60
2022/06/17 07:23:44;;;;;;;2.83;1.20;;;20.90;99.90;21.40;98437.00;;;;4982670;28;87319;-59
2022/06/17 07:26:22;;;;;;;4.05;1.63;;;21.30;99.90;21.80;98438.00;;;;4983095;28;86850;-59
2022/06/17 07:28:52;;;;;;;6.75;1.48;;;21.60;99.90;21.90;98425.00;;;;4982847;28;87050;-59
2022/06/17 07:31:19;;;;;;;3.03;1.20;;;21.80;99.90;22.10;98438.00;;;;4982201;28;89209;-59
2022/06/17 07:33:45;;;;;;;4.20;1.20;;;21.90;99.90;22.10;98436.00;;;;4982671;28;88857;-59
2022/06/17 07:41:50;;;;;;;3.75;1.25;;;22.50;99.90;23.10;98433.00;;;;4982793;28;87710;-60
2022/06/17 07:44:20;;;;;;;4.57;1.08;;;22.70;99.90;22.70;98423.00;;;;4981122;28;88328;-59
2022/06/17 07:46:46;;;;;;;4.30;1.15;;;22.40;99.90;22.70;98428.00;;;;4981297;28;87087;-59
2022/06/17 07:49:13;;;;;;;2.42;1.50;;;22.30;99.90;22.30;98429.00;;;;4981606;28;86897;-59
2022/06/17 07:51:40;;;;;;;3.80;1.40;;;21.80;99.90;22.10;98427.00;;;;4981227;28;88805;-59
2022/06/17 07:54:07;;;;;;;3.40;1.40;;;21.70;99.90;21.90;98431.00;;;;4982107;28;88197;-59
2022/06/17 07:56:33;;;;;;;7.70;1.23;;;21.60;99.90;22.00;98430.00;;;;4979570;28;88190;-59
2022/06/17 07:58:59;;;;;;;2.42;1.10;;;21.70;99.90;22.20;98436.00;;;;4977924;28;87091;-59
2022/06/17 08:01:25;;;;;;;6.57;1.83;;;21.80;99.90;22.30;98442.00;;;;4981098;28;88033;-59
2022/06/17 08:03:51;;;;;;;1.90;1.33;;;22.00;99.90;22.40;98431.00;;;;4982015;28;87129;-60
2022/06/17 08:06:18;;;;;;;5.28;1.20;;;21.90;99.90;22.20;98440.00;;;;4982370;28;87384;-59
2022/06/17 08:08:46;;;;;;;2.08;1.13;;;21.80;99.90;22.20;98434.00;;;;4982203;28;87001;-59
2022/06/17 08:11:12;;;;;;;1.20;0.90;;;21.80;99.90;22.00;98427.00;;;;4979002;28;86968;-60
2022/06/17 08:13:39;;;;;;;2.03;1.00;;;21.60;99.90;21.90;98434.00;;;;4981283;28;87408;-59
2022/06/17 08:16:09;;;;;;;2.20;0.90;;;21.50;99.90;21.80;98424.00;;;;4980754;28;87002;-59
2022/06/17 08:18:37;;;;;;;4.53;1.23;;;21.40;99.90;21.80;98437.00;;;;4964455;28;87010;-59
2022/06/17 08:21:03;;;;;;;5.10;1.33;;;21.40;99.90;22.00;98435.00;;;;4981185;28;88627;-58
2022/06/17 08:23:30;;;;;;;5.60;1.20;;;21.50;99.90;22.10;98430.00;;;;4963817;28;87435;-55
2022/06/17 08:25:57;;;;;;;2.85;1.10;;;21.60;99.90;22.20;98438.00;;;;4981835;28;87077;-57
2022/06/17 08:28:24;;;;;;;6.40;1.25;;;21.70;99.90;22.20;98433.00;;;;4982084;28;87857;-57
2022/06/17 08:30:53;;;;;;;3.22;1.30;;;21.70;99.90;22.30;98438.00;;;;4981499;28;87608;-56
2022/06/17 08:33:32;;;;;;;5.05;1.42;;;21.80;99.90;22.20;98434.00;;;;4981152;28;87476;-60
2022/06/17 08:36:21;;;;;;;3.92;1.52;;;21.80;99.90;22.30;98425.00;;;;4981690;28;86965;-60
2022/06/17 08:39:10;;;;;;;5.68;1.30;;;21.80;99.90;22.40;98421.00;;;;4994322;28;86391;-60
2022/06/17 08:41:52;;;;;;;2.15;1.02;;;21.90;99.90;22.50;98434.00;;;;4973565;28;87960;-61
2022/06/17 08:44:59;;;;;;;6.00;1.30;;;22.00;99.90;22.60;98425.00;;;;4981167;28;87892;-62
2022/06/17 08:47:53;;;;;;;4.03;1.58;;;22.10;99.90;22.70;98433.00;;;;4954192;28;88015;-60
2022/06/17 08:50:44;;;;;;;3.70;1.27;;;22.20;99.90;22.60;98445.00;;;;4960408;28;86996;-60
2022/06/17 08:53:34;;;;;;;5.00;1.20;;;22.10;99.90;22.10;98447.00;;;;4981104;28;88008;-60
2022/06/17 08:56:13;;;;;;;3.88;1.20;;;21.50;99.90;21.30;98453.00;;;;4980910;28;87009;-61
2022/06/17 08:59:13;;;;;;;7.93;1.10;;;20.80;99.90;20.60;98467.00;;;;4975112;28;87215;-61
2022/06/17 09:02:05;;;;;;;2.33;0.75;;;20.20;99.90;19.80;98445.00;;;;4978844;28;87024;-58
2022/06/17 09:04:34;;;;;;;;;;;19.50;99.90;19.20;98440.00;;;;4963893;28;88299;-60
2022/06/17 09:07:09;;;;;;;3.97;0.95;;;19.00;99.90;18.80;98448.00;;;;4982246;28;86988;-60
2022/06/17 09:10:18;;;;;;;4.68;0.95;;;18.60;99.90;18.50;98458.00;;;;4979774;28;88969;-60
2022/06/17 09:13:03;;;;;;;3.72;0.88;;;18.40;99.90;18.40;98467.00;;;;4979057;28;87225;-60
2022/06/17 09:16:04;;;;;;;5.68;1.10;;;18.30;99.90;18.90;98458.00;;;;4976315;28;90159;-60
2022/06/17 09:18:37;;;;;;;3.45;1.00;;;18.60;99.90;19.40;98449.00;;;;4967075;28;89364;-61
2022/06/17 09:21:20;;;;;;;2.47;0.82;;;19.10;99.90;19.90;98445.00;;;;4964009;28;86968;-61
2022/06/17 09:23:47;;;;;;;2.50;0.88;;;19.50;99.90;20.20;98455.00;;;;4968515;28;87041;-61
2022/06/17 09:26:37;;;;;;;9.57;1.40;;;19.80;99.90;20.50;98431.00;;;;4963752;28;88344;-61
2022/06/17 09:29:24;;;;;;;4.90;1.30;;;20.20;99.90;20.70;98439.00;;;;4980883;28;87314;-61
2022/06/17 09:32:10;;;;;;;6.20;1.30;;;20.40;99.90;20.80;98434.00;;;;4965476;28;87240;-60
2022/06/17 09:34:59;;;;;;;4.32;1.40;;;20.50;99.90;21.20;98431.00;;;;4977628;28;86239;-61
2022/06/17 09:37:33;;;;;;;4.72;1.70;;;20.90;99.90;21.40;98437.00;;;;4947218;28;88669;-61
2022/06/17 09:40:30;;;;;;;3.20;1.10;;;21.10;99.90;21.60;98437.00;;;;4980868;28;87011;-61
2022/06/17 09:43:10;;;;;;;2.90;1.02;;;21.30;99.90;21.80;98429.00;;;;4952231;28;89887;-61
2022/06/17 09:46:05;;;;;;;2.60;0.90;;;21.50;99.90;21.90;98428.00;;;;4960830;28;86897;-61
2022/06/17 09:48:40;;;;;;;3.58;1.30;;;21.60;99.90;22.00;98435.00;;;;4960589;28;87469;-61
2022/06/17 09:51:38;;;;;;;5.05;1.70;;;21.70;99.90;22.10;98438.00;;;;4959478;28;88511;-61
2022/06/17 09:54:31;;;;;;;6.35;1.35;;;21.80;99.90;22.10;98436.00;;;;4960780;28;87444;-61
2022/06/17 09:57:47;;;;;;;3.92;1.25;;;21.80;99.90;22.30;98431.00;;;;4942325;28;87031;-60
2022/06/17 10:00:21;;;;;;;3.88;1.20;;;22.00;99.90;22.40;98424.00;;;;4937129;28;87694;-61
2022/06/17 10:02:55;;;;;;;3.95;1.00;;;22.10;99.90;22.50;98428.00;;;;4960172;28;87227;-60
2022/06/17 10:06:02;;;;;;;5.57;1.30;;;22.30;99.90;22.60;98417.00;;;;4955387;28;87029;-60
2022/06/17 10:08:59;;;;;;;1.73;1.10;;;22.20;99.90;22.60;98414.00;;;;4954555;28;87058;-61
2022/06/17 10:11:53;;;;;;;4.45;1.00;;;22.30;99.90;22.60;98413.00;;;;4962897;28;88597;-62
2022/06/17 10:14:38;;;;;;;4.03;1.20;;;22.40;99.90;22.80;98407.00;;;;4963050;28;89406;-62
2022/06/17 10:20:48;;;;;;;3.92;1.13;;;22.50;99.90;22.90;98404.00;;;;4964203;28;87511;-55
2022/06/17 10:23:29;;;;;;;10.52;1.55;;;22.60;99.90;22.50;98391.00;;;;4953264;28;89700;-58
2022/06/17 10:26:37;;;;;;;4.38;1.67;;;22.20;99.90;22.50;98384.00;;;;4964482;28;87157;-54
2022/06/17 10:29:30;;;;;;;3.08;1.50;;;22.20;99.90;22.70;98387.00;;;;4964399;28;87002;-55
2022/06/17 10:31:58;;;;;;;4.32;1.50;;;22.40;99.90;22.70;98391.00;;;;4964670;28;86229;-56
2022/06/17 10:34:36;;;;;;;3.63;1.25;;;22.30;99.90;22.40;98402.00;;;;4964013;28;87722;-56
2022/06/17 10:37:05;;;;;;;7.78;1.35;;;21.90;99.90;22.20;98394.00;;;;4963843;28;87393;-60
2022/06/17 10:39:34;;;;;;;2.25;1.20;;;21.70;99.90;21.90;98377.00;;;;4962216;28;87975;-57
2022/06/17 10:42:01;;;;;;;8.27;1.40;;;21.40;99.90;21.80;98377.00;;;;4963229;28;87054;-57
2022/06/17 10:44:30;;;;;;;5.85;1.58;;;21.40;99.90;21.80;98377.00;;;;4962570;28;87914;-57
2022/06/17 10:47:24;;;;;;;2.47;1.70;;;21.30;99.90;21.70;98380.00;;;;4963240;28;88516;-56
2022/06/17 10:50:05;;;;;;;2.85;1.25;;;21.30;99.90;21.80;98377.00;;;;4956776;28;87576;-58
2022/06/17 10:52:40;;;;;;;4.97;1.75;;;21.50;99.90;22.20;98379.00;;;;4962766;28;87023;-58
2022/06/17 10:55:18;;;;;;;3.15;1.40;;;21.80;99.90;22.40;98371.00;;;;4962398;28;87361;-58
2022/06/17 10:58:25;;;;;;;8.52;1.73;;;22.00;99.90;22.60;98377.00;;;;4963119;28;86690;-56
2022/06/17 11:00:59;;;;;;;3.42;1.90;;;22.10;99.90;22.70;98366.00;;;;4962798;28;87022;-55
2022/06/17 11:03:36;;;;;;;2.78;1.40;;;22.30;99.90;22.60;98369.00;;;;4958977;28;87317;-59
2022/06/17 11:06:25;;;;;;;3.25;1.50;;;22.10;99.90;22.30;98380.00;;;;4959422;28;88550;-58
2022/06/17 11:09:02;;;;;;;3.45;1.60;;;21.90;99.90;22.20;98387.00;;;;4964115;28;88478;-58
2022/06/17 11:12:03;;;;;;;3.33;1.80;;;21.70;99.90;22.00;98375.00;;;;4956067;28;87127;-57
2022/06/17 11:14:44;;;;;;;2.33;1.40;;;21.50;99.90;22.10;98380.00;;;;4962034;28;87831;-58
2022/06/17 11:17:24;;;;;;;;;;;21.70;99.90;22.20;98358.00;;;;4963100;28;88634;-58
2022/06/17 11:19:55;;;;;;;4.18;1.50;;;21.80;99.90;22.40;98363.00;;;;4962315;28;88209;-58
2022/06/17 11:22:35;;;;;;;3.60;1.40;;;22.00;99.90;22.40;98365.00;;;;4960282;28;87369;-56
2022/06/17 11:25:30;;;;;;;13.63;2.30;;;22.00;99.90;22.50;98356.00;;;;4958624;28;86409;-57
2022/06/17 11:28:25;;;;;;;2.50;1.25;;;22.00;99.90;22.50;98353.00;;;;4962702;28;88418;-58
2022/06/17 11:31:01;;;;;;;2.13;1.33;;;22.00;99.90;22.50;98347.00;;;;4963083;28;87355;-58
2022/06/17 11:33:41;;;;;;;7.47;1.35;;;22.00;99.90;22.20;98349.00;;;;4963240;28;87816;-58
2022/06/17 11:36:28;;;;;;;9.73;1.90;;;21.70;99.90;21.90;98353.00;;;;4962677;28;87448;-58
2022/06/17 11:38:57;;;;;;;12.68;2.95;;;21.50;99.90;21.50;98350.00;;;;4961746;28;87768;-56
2022/06/17 11:41:28;;;;;;;7.25;2.00;;;21.20;99.90;21.10;98351.00;;;;4962976;28;87382;-58
2022/06/17 11:44:05;;;;;;;2.73;1.43;;;20.90;99.90;21.10;98350.00;;;;4961412;28;87223;-56
2022/06/17 11:46:33;;;;;;;4.90;2.33;;;21.00;99.90;21.30;98361.00;;;;4962713;28;87623;-56
2022/06/17 11:49:08;;;;;;;4.85;1.35;;;21.20;99.90;21.30;98358.00;;;;4952055;28;87529;-57